Time;durP1;ratioP1;P1;durP2;ratioP2;P2;SDS_P1;SDS_P2;PMS_P1;PMS_P2;Temp;Humidity;BMP_temperature;BMP_pressure;BME280_temperature;BME280_humidity;BME280_pressure;Samples;Min_cycle;Max_cycle;Signal;HPM_P1;HPM_P2
2022/04/03 00:01:52;;;;;;;0.00;0.00;;;-1.00;99.90;;;;;;5048693;28;20044;-63
2022/04/03 00:04:18;;;;;;;0.00;0.00;;;-1.10;99.90;;;;;;5063111;28;20114;-62
2022/04/03 00:06:43;;;;;;;0.10;0.10;;;-1.10;99.90;;;;;;5042030;28;20078;-61
2022/04/03 00:09:09;;;;;;;0.00;0.00;;;-1.10;99.90;;;;;;5043340;28;20094;-62
2022/04/03 00:11:35;;;;;;;0.00;0.00;;;-1.00;99.90;;;;;;5043568;28;20036;-62
2022/04/03 00:14:00;;;;;;;0.00;0.00;;;-1.10;99.90;;;;;;5042782;28;20060;-62
2022/04/03 00:16:26;;;;;;;0.00;0.00;;;-1.00;99.90;;;;;;5042540;28;20160;-63
2022/04/03 00:18:52;;;;;;;0.00;0.00;;;-1.10;99.90;;;;;;5042465;28;20098;-62
2022/04/03 00:21:18;;;;;;;0.00;0.00;;;-1.10;99.90;;;;;;5043237;28;20045;-62
2022/04/03 00:23:44;;;;;;;0.10;0.10;;;-1.00;99.90;;;;;;5042624;28;20037;-61
2022/04/03 00:26:10;;;;;;;0.00;0.00;;;-1.10;99.90;;;;;;5042475;28;20067;-62
2022/04/03 00:28:36;;;;;;;0.00;0.00;;;-1.10;99.90;;;;;;5042140;28;20090;-61
2022/04/03 00:31:02;;;;;;;0.10;0.10;;;-1.10;99.90;;;;;;5042827;28;20045;-62
2022/04/03 00:33:28;;;;;;;0.00;0.00;;;-1.10;99.90;;;;;;5042288;28;20045;-62
2022/04/03 00:35:54;;;;;;;0.10;0.10;;;-1.10;99.90;;;;;;5042399;28;20044;-63
2022/04/03 00:38:19;;;;;;;0.00;0.00;;;-1.10;99.90;;;;;;5042750;28;20048;-62
2022/04/03 00:40:47;;;;;;;0.00;0.00;;;-1.10;99.90;;;;;;5042007;28;20724;-61
2022/04/03 00:43:13;;;;;;;0.00;0.00;;;-1.10;99.90;;;;;;5041415;28;20045;-62
2022/04/03 00:45:44;;;;;;;0.00;0.00;;;-1.00;99.90;;;;;;5042405;28;20033;-62
2022/04/03 00:48:10;;;;;;;0.00;0.00;;;-1.00;99.90;;;;;;5042196;28;20055;-62
2022/04/03 00:50:37;;;;;;;2.60;1.00;;;-1.10;99.90;;;;;;5042040;28;20472;-62
2022/04/03 00:53:03;;;;;;;0.00;0.00;;;-1.10;99.90;;;;;;5041547;28;20385;-61
2022/04/03 00:55:28;;;;;;;0.05;0.05;;;-1.10;99.90;;;;;;5041297;28;20491;-62
2022/04/03 00:57:56;;;;;;;0.00;0.00;;;-1.00;99.90;;;;;;5041281;28;20370;-62
2022/04/03 01:00:21;;;;;;;0.00;0.00;;;-1.00;99.90;;;;;;5041342;28;20044;-63
2022/04/03 01:02:47;;;;;;;1.65;0.30;;;-1.00;99.90;;;;;;5053191;28;20542;-62
2022/04/03 01:05:12;;;;;;;0.00;0.00;;;-0.90;99.90;;;;;;5041966;28;20049;-62
2022/04/03 01:07:38;;;;;;;0.65;0.65;;;-0.10;99.90;;;;;;5041336;28;20052;-61
2022/04/03 01:10:04;;;;;;;0.00;0.00;;;-0.80;99.90;;;;;;5045859;22;20060;-62
2022/04/03 01:12:30;;;;;;;0.00;0.00;;;-0.80;99.90;;;;;;5019767;28;20415;-61
2022/04/03 01:14:56;;;;;;;0.00;0.00;;;-0.80;99.90;;;;;;5018544;28;20045;-62
2022/04/03 01:17:21;;;;;;;0.00;0.00;;;-0.60;99.90;;;;;;5001836;28;20053;-62
2022/04/03 01:19:47;;;;;;;0.00;0.00;;;-0.70;99.90;;;;;;5002044;28;20038;-61
2022/04/03 01:22:12;;;;;;;0.00;0.00;;;-0.60;99.90;;;;;;5002391;28;20050;-62
2022/04/03 01:24:42;;;;;;;0.15;0.15;;;-0.60;99.90;;;;;;5002305;28;20065;-62
2022/04/03 01:27:08;;;;;;;0.00;0.00;;;-0.70;99.90;;;;;;5001458;28;20197;-62
2022/04/03 01:29:34;;;;;;;0.00;0.00;;;-0.70;99.90;;;;;;5002485;28;20504;-62
2022/04/03 01:31:59;;;;;;;0.00;0.00;;;-0.70;99.90;;;;;;5002154;28;20096;-61
2022/04/03 01:34:25;;;;;;;2.17;1.00;;;-0.70;99.90;;;;;;5001581;28;20053;-62
2022/04/03 01:36:50;;;;;;;0.13;0.10;;;-0.80;99.90;;;;;;5000372;28;20081;-62
2022/04/03 01:39:16;;;;;;;0.00;0.00;;;-0.80;99.90;;;;;;5002339;28;20046;-63
2022/04/03 01:41:43;;;;;;;0.10;0.10;;;-0.80;99.90;;;;;;5001876;28;20125;-63
2022/04/03 01:44:10;;;;;;;0.30;0.28;;;-0.60;99.90;;;;;;5001105;28;20033;-62
2022/04/03 01:46:37;;;;;;;0.10;0.10;;;-0.90;99.90;;;;;;5002038;28;20049;-62
2022/04/03 01:49:04;;;;;;;0.00;0.00;;;-0.90;99.90;;;;;;5002162;28;20068;-62
2022/04/03 01:51:31;;;;;;;0.00;0.00;;;-0.90;99.90;;;;;;5002198;28;20104;-63
2022/04/03 01:53:56;;;;;;;0.65;0.15;;;-1.00;99.90;;;;;;5001600;28;20473;-61
2022/04/03 01:56:22;;;;;;;0.00;0.00;;;-1.00;99.90;;;;;;5001893;28;20048;-61
2022/04/03 01:58:48;;;;;;;0.00;0.00;;;-1.00;99.90;;;;;;5000552;28;20125;-61
2022/04/03 02:01:13;;;;;;;0.30;0.25;;;-1.00;99.90;;;;;;5003943;28;20045;-63
2022/04/03 02:03:39;;;;;;;0.00;0.00;;;-1.10;99.90;;;;;;5010420;28;20095;-63
2022/04/03 02:06:05;;;;;;;0.00;0.00;;;-1.10;99.90;;;;;;5000791;28;20042;-61
2022/04/03 02:08:32;;;;;;;0.10;0.10;;;-1.10;99.90;;;;;;5002275;28;20049;-62
2022/04/03 02:10:58;;;;;;;0.00;0.00;;;-1.20;99.90;;;;;;4999281;28;20054;-61
2022/04/03 02:13:24;;;;;;;0.08;0.08;;;-1.20;99.90;;;;;;5000974;28;20052;-62
2022/04/03 02:15:49;;;;;;;0.25;0.25;;;-1.10;99.90;;;;;;5001554;28;20608;-62
2022/04/03 02:18:15;;;;;;;0.10;0.10;;;-1.10;99.90;;;;;;5001464;28;20038;-62
2022/04/03 02:20:41;;;;;;;0.00;0.00;;;-1.10;99.90;;;;;;5001424;28;20081;-61
2022/04/03 02:23:07;;;;;;;0.10;0.10;;;-1.10;99.90;;;;;;5001805;28;20100;-62
2022/04/03 02:25:32;;;;;;;0.00;0.00;;;-1.10;99.90;;;;;;5005764;28;20503;-62
2022/04/03 02:28:01;;;;;;;0.17;0.17;;;-1.10;99.90;;;;;;5004000;28;20129;-61
2022/04/03 02:30:27;;;;;;;0.68;0.20;;;-1.10;99.90;;;;;;5005750;28;20044;-62
2022/04/03 02:32:53;;;;;;;0.00;0.00;;;-1.00;99.90;;;;;;5005135;28;20196;-61
2022/04/03 02:35:19;;;;;;;0.00;0.00;;;-0.90;99.90;;;;;;5005537;28;20125;-62
2022/04/03 02:37:45;;;;;;;0.00;0.00;;;-0.90;99.90;;;;;;5004596;28;20049;-61
2022/04/03 02:40:16;;;;;;;0.00;0.00;;;-0.80;99.90;;;;;;5005509;28;20226;-61
2022/04/03 02:42:42;;;;;;;0.00;0.00;;;-0.70;99.90;;;;;;5004219;28;20041;-62
2022/04/03 02:45:11;;;;;;;0.00;0.00;;;-0.60;99.90;;;;;;5004643;28;20042;-62
2022/04/03 02:47:38;;;;;;;0.00;0.00;;;-0.60;99.90;;;;;;5005446;28;20084;-62
2022/04/03 02:50:05;;;;;;;0.00;0.00;;;0.00;99.90;;;;;;5005281;28;20041;-61
2022/04/03 02:52:31;;;;;;;0.00;0.00;;;-0.60;99.90;;;;;;5005008;28;20053;-62
2022/04/03 02:54:57;;;;;;;0.00;0.00;;;-0.60;99.90;;;;;;5004698;28;20045;-62
2022/04/03 02:57:23;;;;;;;0.00;0.00;;;-0.60;99.90;;;;;;5004230;28;20053;-62
2022/04/03 02:59:49;;;;;;;0.00;0.00;;;-0.50;99.90;;;;;;5004701;28;20053;-61
2022/04/03 03:02:15;;;;;;;0.10;0.10;;;-0.50;99.90;;;;;;5014067;28;20041;-63
2022/04/03 03:04:40;;;;;;;0.00;0.00;;;-0.50;99.90;;;;;;5006218;28;20778;-64
2022/04/03 03:07:07;;;;;;;0.00;0.00;;;-0.50;99.90;;;;;;5004705;28;20129;-62
2022/04/03 03:09:33;;;;;;;0.00;0.00;;;-0.50;99.90;;;;;;5020229;28;20049;-61
2022/04/03 03:11:59;;;;;;;0.00;0.00;;;-0.50;99.90;;;;;;5003473;28;20056;-62
2022/04/03 03:14:27;;;;;;;0.00;0.00;;;-0.40;99.90;;;;;;5004894;28;20135;-62
2022/04/03 03:16:53;;;;;;;0.00;0.00;;;-0.30;99.90;;;;;;5004503;28;20061;-62
2022/04/03 03:19:18;;;;;;;0.00;0.00;;;-0.20;99.90;;;;;;5002969;28;20050;-62
2022/04/03 03:21:44;;;;;;;0.00;0.00;;;-0.10;99.90;;;;;;5004267;28;20049;-61
2022/04/03 03:24:10;;;;;;;0.00;0.00;;;-0.10;99.90;;;;;;5003132;28;20046;-64
2022/04/03 03:26:36;;;;;;;0.00;0.00;;;0.00;99.90;;;;;;5003593;28;20107;-61
2022/04/03 03:29:02;;;;;;;0.00;0.00;;;0.00;99.90;;;;;;5003957;28;20084;-61
2022/04/03 03:31:28;;;;;;;0.00;0.00;;;0.00;99.90;;;;;;5004490;28;20065;-61
2022/04/03 03:33:54;;;;;;;0.00;0.00;;;-0.10;99.90;;;;;;5004153;28;20049;-61
2022/04/03 03:36:20;;;;;;;0.00;0.00;;;0.00;99.90;;;;;;5001656;28;20054;-63
2022/04/03 03:38:45;;;;;;;0.00;0.00;;;0.00;99.90;;;;;;5003832;28;20107;-61
2022/04/03 03:41:11;;;;;;;0.00;0.00;;;0.00;99.90;;;;;;5004685;28;20128;-62
2022/04/03 03:43:37;;;;;;;0.00;0.00;;;0.00;99.90;;;;;;5003310;28;20132;-61
2022/04/03 03:46:03;;;;;;;0.00;0.00;;;0.10;99.90;;;;;;5002606;28;20140;-62
2022/04/03 03:48:29;;;;;;;0.00;0.00;;;0.10;99.90;;;;;;5019676;28;20041;-62
2022/04/03 03:50:55;;;;;;;0.00;0.00;;;0.10;99.90;;;;;;5003777;28;20589;-62
2022/04/03 03:53:21;;;;;;;0.38;0.10;;;0.20;99.90;;;;;;5004105;28;20038;-61
2022/04/03 03:55:48;;;;;;;0.00;0.00;;;0.20;99.90;;;;;;5003159;28;20100;-61
2022/04/03 03:58:13;;;;;;;0.00;0.00;;;0.20;99.90;;;;;;5003514;28;20097;-63
2022/04/03 04:00:39;;;;;;;0.00;0.00;;;0.20;99.90;;;;;;5003369;28;20081;-60
2022/04/03 04:03:05;;;;;;;0.00;0.00;;;0.20;99.90;;;;;;5013373;28;20633;-61
2022/04/03 04:05:30;;;;;;;0.00;0.00;;;0.30;99.90;;;;;;5004213;28;20045;-61
2022/04/03 04:07:56;;;;;;;0.00;0.00;;;0.20;99.90;;;;;;5003039;28;20622;-61
2022/04/03 04:10:22;;;;;;;0.00;0.00;;;0.30;99.90;;;;;;5003639;28;20045;-62
2022/04/03 04:12:48;;;;;;;0.00;0.00;;;0.20;99.90;;;;;;5002207;28;20714;-61
2022/04/03 04:15:15;;;;;;;0.00;0.00;;;0.20;99.90;;;;;;5018865;28;20128;-62
2022/04/03 04:17:43;;;;;;;0.00;0.00;;;0.30;99.90;;;;;;5003608;28;20049;-61
2022/04/03 04:20:12;;;;;;;0.00;0.00;;;0.30;99.90;;;;;;5003480;28;20046;-62
2022/04/03 04:22:43;;;;;;;0.00;0.00;;;0.30;99.90;;;;;;5003433;28;20053;-62
2022/04/03 04:25:11;;;;;;;0.00;0.00;;;0.30;99.90;;;;;;5003755;28;20633;-62
2022/04/03 04:27:38;;;;;;;0.00;0.00;;;0.30;99.90;;;;;;5002559;28;20046;-61
2022/04/03 04:30:04;;;;;;;0.00;0.00;;;0.20;99.90;;;;;;5003005;28;20054;-61
2022/04/03 04:32:30;;;;;;;0.00;0.00;;;0.30;99.90;;;;;;5003841;28;20050;-62
2022/04/03 04:34:55;;;;;;;0.00;0.00;;;0.30;99.90;;;;;;5001621;28;20073;-62
2022/04/03 04:37:21;;;;;;;0.00;0.00;;;0.40;99.90;;;;;;5002682;28;21013;-62
2022/04/03 04:39:47;;;;;;;0.00;0.00;;;0.40;99.90;;;;;;5002585;28;20073;-61
2022/04/03 04:42:13;;;;;;;0.00;0.00;;;0.50;99.90;;;;;;5001231;28;20591;-62
2022/04/03 04:44:40;;;;;;;0.00;0.00;;;0.50;99.90;;;;;;5003047;28;20038;-62
2022/04/03 04:47:05;;;;;;;0.00;0.00;;;0.50;99.90;;;;;;5002367;28;20663;-62
2022/04/03 04:49:31;;;;;;;0.10;0.10;;;0.60;99.90;;;;;;5003364;28;20046;-62
2022/04/03 04:51:57;;;;;;;0.00;0.00;;;0.50;99.90;;;;;;5002448;28;20046;-61
2022/04/03 04:54:25;;;;;;;0.00;0.00;;;0.50;99.90;;;;;;5002816;28;20046;-62
2022/04/03 04:56:51;;;;;;;0.00;0.00;;;0.50;99.90;;;;;;5001820;28;20041;-62
2022/04/03 04:59:17;;;;;;;0.00;0.00;;;0.50;99.90;;;;;;5003022;28;20151;-64
2022/04/03 05:01:42;;;;;;;0.00;0.00;;;0.40;99.90;;;;;;5006156;28;20407;-61
2022/04/03 05:04:08;;;;;;;0.00;0.00;;;1.10;99.90;;;;;;5007851;28;20038;-62
2022/04/03 05:06:35;;;;;;;0.00;0.00;;;0.40;99.90;;;;;;5003110;28;20085;-62
2022/04/03 05:09:04;;;;;;;0.00;0.00;;;0.30;99.90;;;;;;5002881;28;20668;-62
2022/04/03 05:11:31;;;;;;;0.00;0.00;;;0.30;99.90;;;;;;5000345;28;20085;-62
2022/04/03 05:13:58;;;;;;;0.00;0.00;;;0.30;99.90;;;;;;5000868;28;20050;-61
2022/04/03 05:16:24;;;;;;;0.10;0.10;;;0.30;99.90;;;;;;5002559;28;20172;-62
2022/04/03 05:18:50;;;;;;;0.00;0.00;;;0.20;99.90;;;;;;5002183;28;20535;-61
2022/04/03 05:21:16;;;;;;;0.00;0.00;;;0.20;99.90;;;;;;5001991;28;20037;-61
2022/04/03 05:23:42;;;;;;;0.00;0.00;;;0.10;99.90;;;;;;5002179;28;20037;-64
2022/04/03 05:26:07;;;;;;;0.00;0.00;;;-0.50;99.90;;;;;;5002341;28;20588;-61
2022/04/03 05:28:35;;;;;;;0.00;0.00;;;0.10;99.90;;;;;;5002266;28;20135;-61
2022/04/03 05:31:01;;;;;;;0.00;0.00;;;0.10;99.90;;;;;;5001964;28;20052;-62
2022/04/03 05:33:27;;;;;;;0.00;0.00;;;0.20;99.90;;;;;;5002061;28;20045;-62
2022/04/03 05:35:52;;;;;;;0.00;0.00;;;0.20;99.90;;;;;;5001798;28;20126;-62
2022/04/03 05:38:18;;;;;;;0.00;0.00;;;0.20;99.90;;;;;;5000705;28;20049;-64
2022/04/03 05:40:44;;;;;;;0.00;0.00;;;0.30;99.90;;;;;;5001925;28;20227;-61
2022/04/03 05:43:10;;;;;;;0.00;0.00;;;0.30;99.90;;;;;;5001361;28;20120;-62
2022/04/03 05:45:37;;;;;;;0.00;0.00;;;-0.50;99.90;;;;;;5001779;28;20053;-62
2022/04/03 05:48:06;;;;;;;0.00;0.00;;;0.40;99.90;;;;;;5001575;28;20050;-61
2022/04/03 05:50:33;;;;;;;0.10;0.10;;;0.50;99.90;;;;;;5002081;28;20133;-61
2022/04/03 05:52:59;;;;;;;0.00;0.00;;;0.50;99.90;;;;;;5001229;28;20037;-62
2022/04/03 05:55:25;;;;;;;0.10;0.10;;;0.70;99.90;;;;;;5001308;28;20116;-61
2022/04/03 05:57:53;;;;;;;0.10;0.10;;;0.90;99.90;;;;;;5000420;28;20050;-61
2022/04/03 06:00:21;;;;;;;0.00;0.00;;;0.90;99.90;;;;;;5001760;28;20042;-63
2022/04/03 06:02:49;;;;;;;0.00;0.00;;;1.00;99.90;;;;;;5012665;28;20042;-61
2022/04/03 06:05:17;;;;;;;0.10;0.10;;;0.90;99.90;;;;;;5001714;28;20104;-61
2022/04/03 06:07:43;;;;;;;0.00;0.00;;;0.90;99.90;;;;;;5001284;28;20072;-61
2022/04/03 06:10:10;;;;;;;0.00;0.00;;;0.90;99.90;;;;;;5001511;28;20092;-61
2022/04/03 06:12:36;;;;;;;0.10;0.10;;;0.80;99.90;;;;;;5000229;28;20042;-61
2022/04/03 06:15:02;;;;;;;0.00;0.00;;;0.80;99.90;;;;;;5001755;28;20128;-62
2022/04/03 06:17:27;;;;;;;0.00;0.00;;;0.80;99.90;;;;;;5001576;28;20452;-63
2022/04/03 06:19:53;;;;;;;0.00;0.00;;;0.80;99.90;;;;;;4999594;28;20046;-63
2022/04/03 06:22:19;;;;;;;0.00;0.00;;;0.90;99.90;;;;;;5016344;28;20088;-61
2022/04/03 06:24:45;;;;;;;0.00;0.00;;;0.80;99.90;;;;;;5001277;28;20073;-63
2022/04/03 06:27:10;;;;;;;0.00;0.00;;;0.80;99.90;;;;;;5001176;28;20045;-63
2022/04/03 06:29:36;;;;;;;0.00;0.00;;;0.70;99.90;;;;;;5000694;28;20038;-61
2022/04/03 06:32:02;;;;;;;0.00;0.00;;;0.70;99.90;;;;;;5001688;28;20361;-61
2022/04/03 06:34:27;;;;;;;0.00;0.00;;;0.70;99.90;;;;;;5001533;28;20038;-64
2022/04/03 06:36:53;;;;;;;0.00;0.00;;;0.70;99.90;;;;;;5001115;28;20046;-60
2022/04/03 06:39:19;;;;;;;0.00;0.00;;;1.00;99.90;;;;;;5000893;28;20084;-63
2022/04/03 06:41:44;;;;;;;0.00;0.00;;;1.30;99.90;;;;;;5000545;28;20050;-61
2022/04/03 06:44:10;;;;;;;0.77;0.40;;;1.90;99.90;;;;;;5001178;28;20115;-63
2022/04/03 06:46:35;;;;;;;0.10;0.10;;;2.00;99.90;;;;;;5001259;28;20066;-63
2022/04/03 06:49:01;;;;;;;0.00;0.00;;;2.20;99.90;;;;;;5001167;28;20048;-61
2022/04/03 06:51:27;;;;;;;0.00;0.00;;;2.60;99.90;;;;;;5001614;28;20576;-60
2022/04/03 06:53:52;;;;;;;0.00;0.00;;;2.90;99.90;;;;;;5000941;28;20765;-61
2022/04/03 06:56:19;;;;;;;0.00;0.00;;;3.30;99.90;;;;;;5000370;28;20042;-61
2022/04/03 06:58:45;;;;;;;0.00;0.00;;;3.50;99.90;;;;;;4999400;28;20076;-61
2022/04/03 07:01:11;;;;;;;0.00;0.00;;;3.80;99.90;;;;;;5002588;28;20092;-60
2022/04/03 07:03:37;;;;;;;0.22;0.22;;;3.90;99.90;;;;;;5007494;28;20042;-60
2022/04/03 07:06:02;;;;;;;0.00;0.00;;;4.10;99.90;;;;;;4999305;28;20057;-60
2022/04/03 07:08:28;;;;;;;0.05;0.05;;;3.80;99.90;;;;;;5015987;28;20133;-60
2022/04/03 07:10:55;;;;;;;0.00;0.00;;;3.80;99.90;;;;;;5002901;28;20250;-60
2022/04/03 07:13:21;;;;;;;0.00;0.00;;;4.10;99.90;;;;;;5004789;28;20045;-61
2022/04/03 07:15:49;;;;;;;0.00;0.00;;;5.80;99.90;;;;;;5004084;28;20622;-60
2022/04/03 07:18:16;;;;;;;0.00;0.00;;;4.20;99.90;;;;;;5004669;28;20046;-61
2022/04/03 07:20:42;;;;;;;0.00;0.00;;;4.50;99.90;;;;;;5004303;28;20611;-60
2022/04/03 07:23:07;;;;;;;0.10;0.10;;;4.70;99.90;;;;;;5002565;28;20053;-60
2022/04/03 07:25:33;;;;;;;0.00;0.00;;;5.00;99.90;;;;;;5004846;28;20049;-60
2022/04/03 07:27:59;;;;;;;0.00;0.00;;;5.30;99.90;;;;;;5003411;28;20153;-60
2022/04/03 07:30:24;;;;;;;0.00;0.00;;;5.40;99.90;;;;;;5004437;28;20200;-60
2022/04/03 07:32:50;;;;;;;0.00;0.00;;;5.80;99.90;;;;;;5003586;28;20038;-62
2022/04/03 07:35:15;;;;;;;0.00;0.00;;;6.00;99.90;;;;;;5004515;28;20038;-61
2022/04/03 07:37:41;;;;;;;0.00;0.00;;;5.90;99.90;;;;;;5004004;28;20524;-61
2022/04/03 07:40:08;;;;;;;0.00;0.00;;;6.10;99.90;;;;;;5004333;28;20184;-61
2022/04/03 07:42:35;;;;;;;0.00;0.00;;;5.40;99.90;;;;;;5003130;28;20062;-61
2022/04/03 07:45:01;;;;;;;0.00;0.00;;;4.60;99.90;;;;;;5004729;28;20045;-62
2022/04/03 07:47:27;;;;;;;0.00;0.00;;;4.90;99.90;;;;;;5004204;28;20546;-62
2022/04/03 07:49:53;;;;;;;0.00;0.00;;;4.80;99.90;;;;;;5003501;28;20052;-62
2022/04/03 07:52:19;;;;;;;0.00;0.00;;;4.70;99.90;;;;;;5004487;28;20042;-62
2022/04/03 07:54:45;;;;;;;0.00;0.00;;;4.50;99.90;;;;;;5003421;28;20103;-61
2022/04/03 07:57:10;;;;;;;0.00;0.00;;;4.50;99.90;;;;;;5002944;28;20049;-62
2022/04/03 07:59:36;;;;;;;0.00;0.00;;;4.50;99.90;;;;;;5003352;28;20065;-62
2022/04/03 08:02:02;;;;;;;0.00;0.00;;;4.40;99.90;;;;;;5011893;28;20141;-62
2022/04/03 08:04:28;;;;;;;0.00;0.00;;;4.50;99.90;;;;;;5007295;28;20111;-62
2022/04/03 08:06:54;;;;;;;0.00;0.00;;;4.70;99.90;;;;;;5003273;28;20401;-64
2022/04/03 08:09:20;;;;;;;0.00;0.00;;;4.60;99.90;;;;;;5002783;28;20042;-64
2022/04/03 08:11:46;;;;;;;0.00;0.00;;;4.70;99.90;;;;;;5002523;28;20085;-62
2022/04/03 08:14:12;;;;;;;0.00;0.00;;;4.70;99.90;;;;;;5018951;28;20689;-63
2022/04/03 08:16:37;;;;;;;0.00;0.00;;;4.80;99.90;;;;;;5003066;28;20042;-61
2022/04/03 08:19:03;;;;;;;0.00;0.00;;;4.90;99.90;;;;;;5003702;28;20065;-62
2022/04/03 08:21:32;;;;;;;0.00;0.00;;;4.90;99.90;;;;;;5009703;28;20045;-62
2022/04/03 08:23:58;;;;;;;0.00;0.00;;;5.00;99.90;;;;;;5033810;28;20425;-62
2022/04/03 08:26:26;;;;;;;0.00;0.00;;;5.00;99.90;;;;;;5030614;28;20052;-62
2022/04/03 08:28:55;;;;;;;0.00;0.00;;;5.00;99.90;;;;;;5022695;28;20053;-61
2022/04/03 08:31:23;;;;;;;0.00;0.00;;;5.00;99.90;;;;;;5023099;28;20049;-62
2022/04/03 08:33:49;;;;;;;0.00;0.00;;;5.00;99.90;;;;;;5022135;28;20232;-61
2022/04/03 08:36:15;;;;;;;0.00;0.00;;;5.00;99.90;;;;;;5022914;28;20048;-62
2022/04/03 08:38:42;;;;;;;0.00;0.00;;;5.00;99.90;;;;;;5022413;28;20091;-61
2022/04/03 08:41:08;;;;;;;0.00;0.00;;;5.10;99.90;;;;;;5022125;28;20052;-62
2022/04/03 08:43:34;;;;;;;0.00;0.00;;;5.20;99.90;;;;;;5022690;28;20097;-62
2022/04/03 08:46:06;;;;;;;0.00;0.00;;;5.50;99.90;;;;;;5022012;28;20049;-62
2022/04/03 08:48:32;;;;;;;0.00;0.00;;;5.80;99.90;;;;;;5023111;28;20077;-62
2022/04/03 08:51:02;;;;;;;0.00;0.00;;;5.90;99.90;;;;;;5022184;28;20433;-62
2022/04/03 08:53:30;;;;;;;0.00;0.00;;;5.90;99.90;;;;;;5023059;28;20443;-63
2022/04/03 08:55:56;;;;;;;0.00;0.00;;;6.00;99.90;;;;;;5021564;28;20067;-62
2022/04/03 08:58:22;;;;;;;0.00;0.00;;;6.20;99.90;;;;;;5022444;28;20046;-63
2022/04/03 09:00:48;;;;;;;0.00;0.00;;;5.80;99.90;;;;;;5018965;28;20392;-63
2022/04/03 09:03:14;;;;;;;0.00;0.00;;;7.00;99.90;;;;;;4993671;28;20057;-63
2022/04/03 09:05:46;;;;;;;0.00;0.00;;;7.70;99.90;;;;;;5002343;28;20053;-63
2022/04/03 09:08:13;;;;;;;0.00;0.00;;;8.40;99.90;;;;;;5002186;28;20073;-61
2022/04/03 09:10:41;;;;;;;0.00;0.00;;;9.30;99.90;;;;;;5016937;28;20061;-63
2022/04/03 09:13:08;;;;;;;0.00;0.00;;;8.90;99.90;;;;;;5002862;28;20054;-62
2022/04/03 09:15:34;;;;;;;0.00;0.00;;;8.60;99.90;;;;;;5002475;28;20034;-62
2022/04/03 09:18:01;;;;;;;0.00;0.00;;;8.00;99.90;;;;;;5002723;28;20129;-63
2022/04/03 09:20:32;;;;;;;0.00;0.00;;;7.70;99.90;;;;;;5002672;28;20080;-62
2022/04/03 09:23:02;;;;;;;0.00;0.00;;;7.50;99.90;;;;;;5011592;28;20407;-62
2022/04/03 09:25:30;;;;;;;0.00;0.00;;;7.80;99.90;;;;;;5014176;28;20053;-62
2022/04/03 09:27:59;;;;;;;0.00;0.00;;;8.10;99.90;;;;;;5039426;28;20059;-62
2022/04/03 09:30:46;;;;;;;0.00;0.00;;;8.00;99.90;;;;;;5025593;28;20294;-62
2022/04/03 09:33:19;;;;;;;0.00;0.00;;;7.30;99.90;;;;;;5022640;28;20064;-62
2022/04/03 09:36:02;;;;;;;0.00;0.00;;;6.90;99.90;;;;;;5041794;28;20048;-61
2022/04/03 09:38:30;;;;;;;0.00;0.00;;;6.50;99.90;;;;;;5042092;28;20045;-61
2022/04/03 09:40:58;;;;;;;0.00;0.00;;;6.20;99.90;;;;;;5040847;28;20049;-62
2022/04/03 09:43:41;;;;;;;0.00;0.00;;;6.20;99.90;;;;;;5041470;28;20084;-62
2022/04/03 09:46:12;;;;;;;0.00;0.00;;;6.70;99.90;;;;;;5041860;28;20045;-61
2022/04/03 09:48:43;;;;;;;0.00;0.00;;;7.50;99.90;;;;;;5031461;28;20076;-62
2022/04/03 09:51:19;;;;;;;0.00;0.00;;;8.20;99.90;;;;;;5022018;28;20061;-61
2022/04/03 09:53:56;;;;;;;0.00;0.00;;;8.60;99.90;;;;;;5020241;28;20436;-61
2022/04/03 09:56:23;;;;;;;0.00;0.00;;;9.40;99.90;;;;;;5019157;28;20045;-61
2022/04/03 09:58:51;;;;;;;0.00;0.00;;;9.00;99.90;;;;;;5021800;28;20049;-61
2022/04/03 10:01:27;;;;;;;0.00;0.00;;;8.70;99.90;;;;;;5016363;28;20133;-61
2022/04/03 10:03:54;;;;;;;0.00;0.00;;;8.80;99.90;;;;;;5012809;28;20482;-60
2022/04/03 10:06:21;;;;;;;0.00;0.00;;;9.40;99.90;;;;;;5021589;28;20046;-61
2022/04/03 10:08:48;;;;;;;0.00;0.00;;;9.90;99.90;;;;;;5022199;28;20038;-61
2022/04/03 10:11:17;;;;;;;0.00;0.00;;;9.70;99.90;;;;;;5021569;28;20053;-61
2022/04/03 10:13:43;;;;;;;0.00;0.00;;;9.20;99.90;;;;;;5001894;28;20046;-61
2022/04/03 10:16:12;;;;;;;0.00;0.00;;;9.30;99.90;;;;;;5023255;28;20073;-61
2022/04/03 10:18:40;;;;;;;0.00;0.00;;;9.20;99.90;;;;;;5039360;28;20060;-61
2022/04/03 10:21:11;;;;;;;0.00;0.00;;;9.80;99.90;;;;;;5039882;28;20093;-62
2022/04/03 10:23:39;;;;;;;0.00;0.00;;;10.20;99.90;;;;;;5041403;28;20460;-61
2022/04/03 10:26:07;;;;;;;0.00;0.00;;;9.80;99.90;;;;;;5023007;28;20044;-62
2022/04/03 10:28:35;;;;;;;0.00;0.00;;;9.60;99.90;;;;;;5041857;28;20064;-61
2022/04/03 10:31:07;;;;;;;0.00;0.00;;;9.20;99.90;;;;;;5040460;28;20044;-62
2022/04/03 10:33:40;;;;;;;0.00;0.00;;;9.90;99.90;;;;;;5041806;28;20052;-62
2022/04/03 10:36:11;;;;;;;0.00;0.00;;;10.00;99.90;;;;;;5040055;28;20736;-62
2022/04/03 10:38:44;;;;;;;0.00;0.00;;;9.90;99.90;;;;;;5041042;28;20136;-62
2022/04/03 10:41:27;;;;;;;0.00;0.00;;;10.00;99.90;;;;;;5040338;28;20041;-62
2022/04/03 10:44:21;;;;;;;0.00;0.00;;;10.00;99.90;;;;;;5039487;28;20048;-61
2022/04/03 10:47:02;;;;;;;0.00;0.00;;;9.80;99.90;;;;;;5032761;28;20053;-62
2022/04/03 10:50:00;;;;;;;0.00;0.00;;;9.90;99.90;;;;;;5045061;28;20049;-62
2022/04/03 10:52:38;;;;;;;0.00;0.00;;;9.70;99.90;;;;;;5037180;28;20111;-63
2022/04/03 10:55:16;;;;;;;0.00;0.00;;;9.20;99.90;;;;;;5028668;28;20042;-63
2022/04/03 10:57:48;;;;;;;0.00;0.00;;;9.00;99.90;;;;;;5021869;28;20053;-62
2022/04/03 11:00:14;;;;;;;0.00;0.00;;;9.50;99.90;;;;;;5024470;28;20073;-63
2022/04/03 11:02:42;;;;;;;0.00;0.00;;;10.00;99.90;;;;;;5021669;28;20183;-63
2022/04/03 11:05:26;;;;;;;0.00;0.00;;;9.80;99.90;;;;;;5024692;28;20144;-63
2022/04/03 11:08:01;;;;;;;0.00;0.00;;;9.30;99.90;;;;;;5026711;28;20040;-62
2022/04/03 11:10:56;;;;;;;0.00;0.00;;;9.70;99.90;;;;;;5028728;28;20470;-62
2022/04/03 11:13:34;;;;;;;0.00;0.00;;;10.40;99.90;;;;;;5044326;28;20171;-60
2022/04/03 11:16:09;;;;;;;0.00;0.00;;;10.60;99.90;;;;;;5044536;28;20052;-62
2022/04/03 11:18:41;;;;;;;0.00;0.00;;;10.20;99.90;;;;;;5044121;28;20051;-62
2022/04/03 11:21:10;;;;;;;0.00;0.00;;;9.70;99.90;;;;;;5044234;28;20503;-62
2022/04/03 11:23:42;;;;;;;0.00;0.00;;;9.30;99.90;;;;;;5044335;28;20083;-62
2022/04/03 11:26:08;;;;;;;0.00;0.00;;;9.70;99.90;;;;;;5028289;28;20095;-61
2022/04/03 11:28:36;;;;;;;0.00;0.00;;;9.90;99.90;;;;;;5024874;28;20049;-62
2022/04/03 11:31:04;;;;;;;0.00;0.00;;;10.60;99.90;;;;;;5024722;28;20136;-63
2022/04/03 11:33:30;;;;;;;0.00;0.00;;;11.10;99.90;;;;;;5024393;28;20041;-61
2022/04/03 11:36:03;;;;;;;0.00;0.00;;;10.50;99.90;;;;;;5023438;28;20124;-61
2022/04/03 11:38:41;;;;;;;0.00;0.00;;;10.10;99.90;;;;;;5024507;28;20096;-61
2022/04/03 11:41:15;;;;;;;0.00;0.00;;;9.50;99.90;;;;;;5026772;28;20037;-61
2022/04/03 11:43:41;;;;;;;0.00;0.00;;;9.30;99.90;;;;;;5036355;28;20055;-61
2022/04/03 11:46:08;;;;;;;0.00;0.00;;;9.60;99.90;;;;;;5043782;28;20041;-61
2022/04/03 11:48:42;;;;;;;0.00;0.00;;;9.70;99.90;;;;;;5043659;28;20124;-62
2022/04/03 11:51:13;;;;;;;0.00;0.00;;;9.60;99.90;;;;;;5044183;28;20051;-61
2022/04/03 11:53:41;;;;;;;0.00;0.00;;;10.10;99.90;;;;;;5043927;28;20090;-61
2022/04/03 11:56:11;;;;;;;0.00;0.00;;;10.40;99.90;;;;;;5041586;28;20056;-61
2022/04/03 11:58:48;;;;;;;0.00;0.00;;;10.60;99.90;;;;;;5043624;28;20523;-61
2022/04/03 12:01:22;;;;;;;0.00;0.00;;;10.60;99.90;;;;;;5034113;28;20042;-62
2022/04/03 12:03:48;;;;;;;0.00;0.00;;;9.80;99.90;;;;;;5022452;28;20120;-60
2022/04/03 12:06:16;;;;;;;0.00;0.00;;;10.10;99.90;;;;;;5023615;28;20183;-61
2022/04/03 12:08:44;;;;;;;0.00;0.00;;;10.30;99.90;;;;;;5022627;28;20041;-61
2022/04/03 12:11:23;;;;;;;0.00;0.00;;;9.90;99.90;;;;;;5019419;28;20560;-61
2022/04/03 12:13:48;;;;;;;0.00;0.00;;;10.00;99.90;;;;;;5020376;28;20095;-62
2022/04/03 12:16:16;;;;;;;0.00;0.00;;;9.80;99.90;;;;;;5021926;28;20037;-61
2022/04/03 12:18:56;;;;;;;0.00;0.00;;;9.50;99.90;;;;;;5022347;28;20052;-61
2022/04/03 12:21:41;;;;;;;0.00;0.00;;;9.40;99.90;;;;;;5022266;28;20049;-61
2022/04/03 12:24:14;;;;;;;0.00;0.00;;;9.00;99.90;;;;;;5022492;28;20051;-62
2022/04/03 12:27:03;;;;;;;0.00;0.00;;;9.80;99.90;;;;;;5021645;28;20829;-61
2022/04/03 12:29:31;;;;;;;0.10;0.10;;;9.80;99.90;;;;;;5021027;28;20041;-61
2022/04/03 12:32:02;;;;;;;0.00;0.00;;;10.60;99.90;;;;;;5023048;28;20056;-61
2022/04/03 12:34:30;;;;;;;0.00;0.00;;;10.50;99.90;;;;;;5023394;28;20052;-62
2022/04/03 12:36:58;;;;;;;0.00;0.00;;;10.60;99.90;;;;;;5022249;28;20103;-61
2022/04/03 12:39:50;;;;;;;0.00;0.00;;;10.60;99.90;;;;;;5023237;28;20209;-62
2022/04/03 12:42:15;;;;;;;0.00;0.00;;;10.70;99.90;;;;;;5017073;28;20152;-61
2022/04/03 12:44:48;;;;;;;0.00;0.00;;;10.70;99.90;;;;;;5021214;28;20121;-62
2022/04/03 12:47:18;;;;;;;0.00;0.00;;;11.10;99.90;;;;;;5023142;28;20399;-62
2022/04/03 12:49:48;;;;;;;0.00;0.00;;;10.70;99.90;;;;;;5022200;28;20072;-62
2022/04/03 12:52:43;;;;;;;0.00;0.00;;;11.10;99.90;;;;;;5023217;28;20116;-62
2022/04/03 12:55:38;;;;;;;0.00;0.00;;;10.70;99.90;;;;;;5006430;28;20053;-62
2022/04/03 13:01:06;;;;;;;0.00;0.00;;;11.00;99.90;;;;;;5020591;28;20052;-62